createdAt,value
2019-05-03T00:00:58.468Z,15.43
2019-05-03T00:03:24.639Z,14.40
2019-05-03T00:05:52.461Z,15.87
2019-05-03T00:08:19.004Z,16.20
2019-05-03T00:10:45.056Z,15.40
2019-05-03T00:13:12.537Z,14.37
2019-05-03T00:15:55.825Z,15.67
2019-05-03T00:18:22.223Z,14.20
2019-05-03T00:20:48.383Z,15.10
2019-05-03T00:23:14.435Z,17.23
2019-05-03T00:25:41.808Z,17.60
2019-05-03T00:28:08.071Z,15.80
2019-05-03T00:30:34.138Z,15.47
2019-05-03T00:33:00.233Z,16.83
2019-05-03T00:35:31.934Z,15.80
2019-05-03T00:38:01.976Z,15.57
2019-05-03T00:40:28.272Z,19.43
2019-05-03T00:42:54.760Z,16.93
2019-05-03T00:45:22.108Z,18.43
2019-05-03T00:47:48.301Z,18.80
2019-05-03T00:50:14.391Z,16.47
2019-05-03T00:52:42.243Z,18.10
2019-05-03T00:55:16.241Z,18.53
2019-05-03T00:57:36.577Z,17.50
2019-05-03T01:00:06.004Z,17.53
2019-05-03T01:02:32.068Z,16.93
2019-05-03T01:04:58.123Z,15.60
2019-05-03T01:07:24.206Z,16.60
2019-05-03T01:09:51.810Z,15.47
2019-05-03T01:12:18.134Z,16.50
2019-05-03T01:14:46.112Z,16.20
2019-05-03T01:17:12.167Z,15.03
2019-05-03T01:19:38.229Z,16.10
2019-05-03T01:22:04.304Z,16.73
2019-05-03T01:24:32.129Z,13.63
2019-05-03T01:26:58.341Z,16.63
2019-05-03T01:29:24.391Z,14.30
2019-05-03T01:31:52.487Z,13.80
2019-05-03T01:34:18.549Z,14.43
2019-05-03T01:36:44.612Z,12.40
2019-05-03T01:39:12.633Z,13.93
2019-05-03T01:41:38.663Z,12.10
2019-05-03T01:44:04.742Z,14.17
2019-05-03T01:46:31.597Z,13.33
2019-05-03T01:49:14.649Z,13.20
2019-05-03T01:51:54.813Z,11.40
2019-05-03T01:54:22.753Z,11.60
2019-05-03T01:56:56.794Z,11.50
2019-05-03T01:59:16.956Z,11.70
2019-05-03T02:01:44.937Z,10.33
2019-05-03T02:04:12.908Z,11.17
2019-05-03T02:06:38.971Z,9.60
2019-05-03T02:09:07.041Z,11.13
2019-05-03T02:11:33.126Z,9.70
2019-05-03T02:13:59.188Z,9.50
2019-05-03T02:16:25.250Z,10.53
2019-05-03T02:18:51.820Z,8.68
2019-05-03T02:21:18.060Z,8.93
2019-05-03T02:23:44.147Z,10.43
2019-05-03T02:26:11.793Z,9.00
2019-05-03T02:28:37.983Z,9.40
2019-05-03T02:31:04.073Z,9.37
2019-05-03T02:33:32.714Z,7.40
2019-05-03T02:35:58.107Z,9.20
2019-05-03T02:38:24.277Z,7.73
2019-05-03T02:40:53.023Z,8.33
2019-05-03T02:43:20.217Z,7.80
2019-05-03T02:45:57.523Z,7.80
2019-05-03T02:48:45.524Z,7.80
2019-05-03T02:51:10.430Z,7.73
2019-05-03T02:53:36.497Z,7.07
2019-05-03T02:56:15.154Z,7.15
2019-05-03T02:58:30.966Z,7.60
2019-05-03T03:00:59.953Z,6.90
2019-05-03T03:03:27.232Z,5.92
2019-05-03T03:05:56.094Z,7.50
2019-05-03T03:08:25.280Z,6.37
2019-05-03T03:10:51.642Z,6.80
2019-05-03T03:13:20.112Z,6.73
2019-05-03T03:15:46.683Z,6.90
2019-05-03T03:18:15.717Z,6.80
2019-05-03T03:20:45.564Z,6.35
2019-05-03T03:23:15.358Z,7.58
2019-05-03T03:25:46.219Z,6.35
2019-05-03T03:28:16.095Z,6.35
2019-05-03T03:30:51.832Z,6.47
2019-05-03T03:33:18.241Z,6.78
2019-05-03T03:35:48.967Z,6.10
2019-05-03T03:38:15.355Z,6.90
2019-05-03T03:40:41.089Z,6.05
2019-05-03T03:43:08.458Z,6.85
2019-05-03T03:45:36.537Z,6.37
2019-05-03T03:48:05.197Z,6.53
2019-05-03T03:50:32.792Z,6.42
2019-05-03T03:52:59.316Z,7.40
2019-05-03T03:55:27.564Z,7.67
2019-05-03T03:57:55.692Z,6.12
2019-05-03T04:00:22.024Z,7.20
2019-05-03T04:02:49.180Z,7.50
2019-05-03T04:05:15.926Z,7.80
2019-05-03T04:07:42.244Z,7.08
2019-05-03T04:10:08.671Z,6.80
2019-05-03T04:12:35.345Z,7.03
2019-05-03T04:15:07.694Z,7.72
2019-05-03T04:17:56.612Z,8.65
2019-05-03T04:20:25.775Z,8.93
2019-05-03T04:22:52.309Z,8.93
2019-05-03T04:25:18.509Z,9.88
2019-05-03T04:27:45.620Z,9.55
2019-05-03T04:30:12.247Z,9.10
2019-05-03T04:32:38.441Z,9.08
2019-05-03T04:35:05.493Z,9.78
2019-05-03T04:37:31.707Z,9.58
2019-05-03T04:39:57.784Z,9.50
2019-05-03T04:42:25.349Z,12.13
2019-05-03T04:44:51.827Z,10.88
2019-05-03T04:47:17.988Z,8.98
2019-05-03T04:49:46.288Z,10.95
2019-05-03T04:52:12.144Z,12.07
2019-05-03T04:54:40.111Z,10.55
2019-05-03T04:57:06.701Z,11.40
2019-05-03T04:59:35.695Z,12.05
2019-05-03T05:02:01.086Z,11.35
2019-05-03T05:04:27.153Z,12.60
2019-05-03T05:06:55.348Z,16.12
2019-05-03T05:09:21.197Z,16.67
2019-05-03T05:11:47.305Z,16.07
2019-05-03T05:14:15.324Z,16.60
2019-05-03T05:16:42.307Z,15.90
2019-05-03T05:19:22.356Z,15.70
2019-05-03T05:21:55.024Z,19.17
2019-05-03T05:24:21.225Z,23.83
2019-05-03T05:26:58.151Z,20.10
2019-05-03T05:29:26.120Z,24.80
2019-05-03T05:31:52.275Z,27.20
2019-05-03T05:34:18.454Z,27.07
2019-05-03T05:36:45.068Z,28.45
2019-05-03T05:39:15.186Z,29.27
2019-05-03T05:41:41.208Z,27.93
2019-05-03T05:44:07.289Z,31.10
2019-05-03T05:46:41.293Z,32.05
2019-05-03T05:49:09.284Z,32.95
2019-05-03T05:51:35.412Z,31.12
2019-05-03T05:54:01.524Z,31.37
2019-05-03T05:56:35.547Z,31.17
2019-05-03T05:59:06.388Z,30.75
2019-05-03T06:01:35.373Z,32.48
2019-05-03T06:04:01.637Z,30.72
2019-05-03T06:06:29.596Z,30.20
2019-05-03T06:08:57.585Z,31.30
2019-05-03T06:11:28.597Z,29.32
2019-05-03T06:14:08.593Z,32.00
2019-05-03T06:16:39.600Z,30.35
2019-05-03T06:19:10.519Z,33.08
2019-05-03T06:21:38.493Z,31.60
2019-05-03T06:24:18.234Z,32.15
2019-05-03T06:26:49.028Z,31.37
2019-05-03T06:29:15.182Z,34.18
2019-05-03T06:31:55.173Z,32.15
2019-05-03T06:34:21.313Z,29.77
2019-05-03T06:36:51.373Z,31.17
2019-05-03T06:39:17.271Z,31.90
2019-05-03T06:41:44.527Z,33.95
2019-05-03T06:44:10.823Z,34.43
2019-05-03T06:46:45.628Z,40.05
2019-05-03T06:49:15.153Z,37.55
2019-05-03T06:51:45.769Z,34.13
2019-05-03T06:54:09.956Z,34.10
2019-05-03T06:56:36.416Z,36.70
2019-05-03T06:59:05.246Z,33.23
2019-05-03T07:01:45.626Z,35.30
2019-05-03T07:04:15.256Z,33.05
2019-05-03T07:06:49.320Z,33.25
2019-05-03T07:09:20.313Z,33.53
2019-05-03T07:11:46.379Z,34.73
2019-05-03T07:14:12.443Z,35.50
2019-05-03T07:16:38.625Z,32.93
2019-05-03T07:19:04.690Z,33.73
2019-05-03T07:21:30.764Z,32.08
2019-05-03T07:23:56.845Z,32.53
2019-05-03T07:26:22.996Z,30.60
2019-05-03T07:28:50.148Z,29.95
2019-05-03T07:31:16.492Z,31.65
2019-05-03T07:33:44.512Z,30.77
2019-05-03T07:36:10.519Z,32.30
2019-05-03T07:38:36.601Z,32.20
2019-05-03T07:41:05.095Z,29.27
2019-05-03T07:43:30.861Z,29.63
2019-05-03T07:45:56.929Z,26.10
2019-05-03T07:48:25.287Z,31.25
2019-05-03T07:50:51.068Z,31.82
2019-05-03T07:53:17.254Z,30.85
2019-05-03T07:55:45.766Z,31.35
2019-05-03T07:58:15.009Z,32.05
2019-05-03T08:00:41.288Z,33.88
2019-05-03T08:03:07.368Z,30.00
2019-05-03T08:05:34.938Z,30.32
2019-05-03T08:08:01.227Z,26.55
2019-05-03T08:10:27.285Z,30.17
2019-05-03T08:12:54.437Z,30.12
2019-05-03T08:15:20.644Z,30.35
2019-05-03T08:17:46.724Z,31.33
2019-05-03T08:20:14.396Z,29.92
2019-05-03T08:22:40.572Z,34.98
2019-05-03T08:25:06.771Z,30.50
2019-05-03T08:27:32.853Z,32.08
2019-05-03T08:29:58.931Z,30.53
2019-05-03T08:32:35.684Z,31.90
2019-05-03T08:35:15.679Z,32.20
2019-05-03T08:37:46.541Z,38.73
2019-05-03T08:40:15.458Z,79.40
2019-05-03T08:42:41.311Z,30.48
2019-05-03T08:45:08.134Z,28.40
2019-05-03T08:47:34.529Z,29.53
2019-05-03T08:50:00.736Z,24.70
2019-05-03T08:52:26.813Z,16.77
2019-05-03T08:54:54.825Z,18.02
2019-05-03T08:57:20.891Z,17.03
2019-05-03T08:59:47.028Z,17.85
2019-05-03T09:02:17.376Z,18.17
2019-05-03T09:04:43.177Z,23.50
2019-05-03T09:07:09.125Z,25.50
2019-05-03T09:09:55.023Z,11.70
2019-05-03T09:12:21.293Z,10.50
2019-05-03T09:14:48.473Z,9.55
2019-05-03T09:17:15.245Z,11.78
2019-05-03T09:19:41.550Z,14.50
2019-05-03T09:22:07.679Z,12.23
2019-05-03T09:24:35.109Z,16.77
2019-05-03T09:27:01.526Z,14.60
2019-05-03T09:29:39.696Z,18.83
2019-05-03T09:31:55.547Z,18.20
2019-05-03T09:34:21.624Z,21.30
2019-05-03T09:36:47.685Z,25.73
2019-05-03T09:39:14.892Z,19.90
2019-05-03T09:41:41.136Z,22.70
2019-05-03T09:44:07.205Z,26.03
2019-05-03T09:46:35.301Z,22.60
2019-05-03T09:49:12.631Z,24.07
2019-05-03T09:51:29.228Z,26.30
2019-05-03T09:54:14.846Z,25.30
2019-05-03T09:56:58.556Z,25.37
2019-05-03T09:59:26.327Z,27.10
2019-05-03T10:01:52.384Z,23.47
2019-05-03T10:04:18.469Z,24.60
2019-05-03T10:06:45.193Z,24.20
2019-05-03T10:09:12.326Z,25.07
2019-05-03T10:11:38.397Z,25.47
2019-05-03T10:14:04.742Z,23.10
2019-05-03T10:16:34.992Z,26.37
2019-05-03T10:19:00.932Z,20.60
2019-05-03T10:21:28.922Z,20.87
2019-05-03T10:23:55.797Z,21.93
2019-05-03T10:26:24.494Z,22.50
2019-05-03T10:28:50.436Z,21.53
2019-05-03T10:31:16.827Z,20.13
2019-05-03T10:33:47.806Z,19.03
2019-05-03T10:36:15.492Z,20.13
2019-05-03T10:38:41.840Z,21.10
2019-05-03T10:41:08.019Z,21.37
2019-05-03T10:43:35.505Z,19.47
2019-05-03T10:46:01.869Z,21.80
2019-05-03T10:48:27.919Z,20.00
2019-05-03T10:50:56.258Z,23.17
2019-05-03T10:53:23.865Z,23.80
2019-05-03T10:56:08.460Z,22.57
2019-05-03T10:58:35.667Z,20.93
2019-05-03T11:01:01.996Z,21.10
2019-05-03T11:03:28.078Z,19.73
2019-05-03T11:05:54.840Z,18.53
2019-05-03T11:08:21.092Z,18.20
2019-05-03T11:10:47.159Z,17.50
2019-05-03T11:13:15.301Z,17.03
2019-05-03T11:15:41.237Z,16.00
2019-05-03T11:18:07.401Z,17.17
2019-05-03T11:20:34.861Z,17.97
2019-05-03T11:23:02.040Z,16.63
2019-05-03T11:25:28.100Z,15.47
2019-05-03T11:27:55.677Z,16.23
2019-05-03T11:30:21.748Z,17.17
2019-05-03T11:33:01.811Z,17.90
2019-05-03T11:35:29.799Z,15.93
2019-05-03T11:37:57.778Z,15.50
2019-05-03T11:40:25.134Z,15.60
2019-05-03T11:42:55.253Z,15.23
2019-05-03T11:45:21.296Z,15.57
2019-05-03T11:47:47.355Z,14.87
2019-05-03T11:50:14.854Z,12.07
2019-05-03T11:52:41.204Z,8.90
2019-05-03T11:55:11.205Z,8.93
2019-05-03T11:57:35.769Z,7.47
2019-05-03T12:00:05.419Z,6.20
2019-05-03T12:02:33.447Z,6.50
2019-05-03T12:05:01.497Z,6.50
2019-05-03T12:07:39.579Z,7.43
2019-05-03T12:10:02.555Z,6.80
2019-05-03T12:12:30.608Z,7.90
2019-05-03T12:14:56.717Z,8.77
2019-05-03T12:17:28.794Z,8.67
2019-05-03T12:19:54.388Z,8.70
2019-05-03T12:22:21.243Z,10.00
2019-05-03T12:24:48.422Z,9.57
2019-05-03T12:27:15.050Z,9.87
2019-05-03T12:29:41.247Z,7.83
2019-05-03T12:32:07.313Z,8.57
2019-05-03T12:34:35.220Z,8.70
2019-05-03T12:37:01.362Z,8.60
2019-05-03T12:39:30.629Z,9.23
2019-05-03T12:41:55.469Z,9.63
2019-05-03T12:44:21.595Z,7.67
2019-05-03T12:46:47.663Z,10.27
2019-05-03T12:49:15.524Z,10.00
2019-05-03T12:51:41.796Z,10.23
2019-05-03T12:54:07.900Z,9.77
2019-05-03T12:56:35.843Z,10.50
2019-05-03T12:59:10.502Z,11.30
2019-05-03T13:01:56.914Z,10.57
2019-05-03T13:04:27.688Z,11.10
2019-05-03T13:07:05.466Z,10.93
2019-05-03T13:09:31.687Z,11.50
2019-05-03T13:11:59.170Z,10.47
2019-05-03T13:14:25.492Z,10.33
2019-05-03T13:16:51.609Z,10.20
2019-05-03T13:19:17.669Z,11.07
2019-05-03T13:21:45.001Z,10.80
2019-05-03T13:24:22.506Z,11.60
2019-05-03T13:26:39.281Z,17.50
2019-05-03T13:29:05.872Z,11.70
2019-05-03T13:31:32.219Z,10.73
2019-05-03T13:33:58.351Z,12.97
2019-05-03T13:36:25.266Z,12.00
2019-05-03T13:38:51.641Z,12.30
2019-05-03T13:41:17.712Z,13.43
2019-05-03T13:43:45.492Z,11.60
2019-05-03T13:46:11.914Z,12.93
2019-05-03T13:48:45.458Z,12.83
2019-05-03T13:51:06.105Z,12.50
2019-05-03T13:53:32.284Z,12.30
2019-05-03T13:55:58.359Z,12.60
2019-05-03T13:58:26.319Z,12.50
2019-05-03T14:00:54.699Z,12.30
2019-05-03T14:03:20.384Z,14.13
2019-05-03T14:05:46.576Z,13.77
2019-05-03T14:08:12.653Z,13.23
2019-05-03T14:10:39.416Z,12.67
2019-05-03T14:13:05.735Z,12.50
2019-05-03T14:15:31.972Z,13.83
2019-05-03T14:17:58.049Z,14.17
2019-05-03T14:20:31.545Z,12.80
2019-05-03T14:22:57.772Z,14.50
2019-05-03T14:25:24.666Z,14.03
2019-05-03T14:27:51.856Z,15.17
2019-05-03T14:30:18.181Z,15.43
2019-05-03T14:32:45.258Z,15.47
2019-05-03T14:35:11.724Z,15.43
2019-05-03T14:37:38.071Z,17.90
2019-05-03T14:40:06.517Z,16.40
2019-05-03T14:42:32.668Z,15.67
2019-05-03T14:44:58.757Z,16.17
2019-05-03T14:47:25.195Z,15.63
2019-05-03T14:49:51.405Z,14.43
2019-05-03T14:52:17.490Z,14.67
2019-05-03T14:54:45.463Z,15.90
2019-05-03T14:57:28.541Z,16.13
2019-05-03T15:00:16.985Z,18.47
2019-05-03T15:02:48.416Z,17.77
2019-05-03T15:05:11.504Z,16.17
2019-05-03T15:07:37.579Z,16.30
2019-05-03T15:10:05.629Z,16.00
2019-05-03T15:12:31.821Z,17.43
2019-05-03T15:14:58.100Z,16.00
2019-05-03T15:17:24.701Z,17.00
2019-05-03T15:19:50.933Z,17.07
2019-05-03T15:22:17.026Z,17.20
2019-05-03T15:24:44.970Z,17.10
2019-05-03T15:27:11.166Z,17.60
2019-05-03T15:29:37.256Z,18.50
2019-05-03T15:32:05.008Z,17.30
2019-05-03T15:34:31.371Z,20.07
2019-05-03T15:36:57.457Z,20.37
2019-05-03T15:39:23.551Z,21.27
2019-05-03T15:41:49.739Z,22.60
2019-05-03T15:44:20.249Z,17.40
2019-05-03T15:46:54.571Z,18.43
2019-05-03T15:49:20.704Z,14.90
2019-05-03T15:51:46.815Z,30.73
2019-05-03T15:54:12.978Z,10.90
2019-05-03T15:56:39.038Z,8.40
2019-05-03T15:59:05.103Z,7.17
2019-05-03T16:01:31.207Z,5.63
2019-05-03T16:03:57.292Z,5.93
2019-05-03T16:06:24.806Z,7.07
2019-05-03T16:08:51.123Z,6.60
2019-05-03T16:11:17.292Z,8.20
2019-05-03T16:13:44.897Z,5.77
2019-05-03T16:16:11.629Z,6.90
2019-05-03T16:18:37.698Z,5.10
2019-05-03T16:21:04.998Z,4.83
2019-05-03T16:23:31.257Z,4.93
2019-05-03T16:25:57.326Z,4.33
2019-05-03T16:28:25.313Z,4.80
2019-05-03T16:30:53.280Z,4.93
2019-05-03T16:33:27.083Z,3.90
2019-05-03T16:35:47.325Z,8.30
2019-05-03T16:38:15.554Z,3.77
2019-05-03T16:40:42.090Z,4.60
2019-05-03T16:43:08.224Z,3.73
2019-05-03T16:45:35.047Z,4.13
2019-05-03T16:48:01.289Z,3.90
2019-05-03T16:50:27.353Z,4.13
2019-05-03T16:52:54.975Z,5.03
2019-05-03T16:55:21.490Z,5.93
2019-05-03T16:57:47.553Z,5.83
2019-05-03T17:00:17.526Z,6.67
2019-05-03T17:02:41.834Z,4.70
2019-05-03T17:05:16.428Z,4.67
2019-05-03T17:07:44.724Z,3.93
2019-05-03T17:10:18.879Z,4.27
2019-05-03T17:12:45.425Z,5.23
2019-05-03T17:15:14.346Z,4.67
2019-05-03T17:17:40.301Z,4.17
2019-05-03T17:20:06.892Z,3.60
2019-05-03T17:22:34.493Z,2.73
2019-05-03T17:25:00.971Z,2.93
2019-05-03T17:27:27.108Z,3.67
2019-05-03T17:29:55.223Z,2.47
2019-05-03T17:32:21.559Z,2.73
2019-05-03T17:34:47.746Z,2.77
2019-05-03T17:37:13.792Z,2.60
2019-05-03T17:39:41.800Z,2.80
2019-05-03T17:42:09.769Z,3.07
2019-05-03T17:44:37.892Z,2.70
2019-05-03T17:47:04.328Z,2.90
2019-05-03T17:49:30.455Z,2.93
2019-05-03T17:52:01.268Z,3.23
2019-05-03T17:54:29.236Z,3.60
2019-05-03T17:57:04.568Z,3.90
2019-05-03T17:59:35.769Z,3.77
2019-05-03T18:02:12.921Z,3.30
2019-05-03T18:04:40.908Z,4.17
2019-05-03T18:07:12.035Z,3.47
2019-05-03T18:09:40.010Z,4.47
2019-05-03T18:12:06.195Z,4.47
2019-05-03T18:14:34.358Z,4.33
2019-05-03T18:17:00.288Z,4.27
2019-05-03T18:19:26.371Z,3.90
2019-05-03T18:21:52.544Z,4.30
2019-05-03T18:24:18.611Z,4.80
2019-05-03T18:26:44.728Z,6.17
2019-05-03T18:29:10.910Z,6.70
2019-05-03T18:31:37.022Z,6.30
2019-05-03T18:34:05.028Z,7.40
2019-05-03T18:36:32.426Z,6.20
2019-05-03T18:38:59.361Z,5.60
2019-05-03T18:41:25.660Z,4.10
2019-05-03T18:43:59.753Z,3.57
2019-05-03T18:46:33.684Z,3.50
2019-05-03T18:48:59.884Z,4.50
2019-05-03T18:51:26.053Z,4.50
2019-05-03T18:53:52.112Z,4.07
2019-05-03T18:56:18.196Z,4.00
2019-05-03T18:58:44.884Z,3.73
2019-05-03T19:01:11.852Z,3.47
2019-05-03T19:03:38.238Z,3.73
2019-05-03T19:06:09.037Z,3.73
2019-05-03T19:08:44.689Z,4.00
2019-05-03T19:11:25.271Z,4.20
2019-05-03T19:13:55.184Z,3.60
2019-05-03T19:16:25.994Z,3.57
2019-05-03T19:18:52.285Z,4.40
2019-05-03T19:21:18.437Z,5.17
2019-05-03T19:23:44.918Z,4.23
2019-05-03T19:26:11.120Z,3.47
2019-05-03T19:28:37.185Z,4.30
2019-05-03T19:31:05.260Z,4.17
2019-05-03T19:33:31.335Z,4.43
2019-05-03T19:36:00.184Z,4.00
2019-05-03T19:38:25.360Z,4.00
2019-05-03T19:40:51.488Z,4.10
2019-05-03T19:43:17.586Z,3.70
2019-05-03T19:45:44.869Z,4.43
2019-05-03T19:48:11.224Z,4.07
2019-05-03T19:50:37.298Z,3.53
2019-05-03T19:53:05.393Z,4.07
2019-05-03T19:55:31.619Z,4.20
2019-05-03T19:57:57.684Z,4.17
2019-05-03T20:00:25.693Z,4.80
2019-05-03T20:02:54.457Z,4.60
2019-05-03T20:05:22.611Z,5.60
2019-05-03T20:07:57.145Z,5.00
2019-05-03T20:10:24.934Z,4.40
2019-05-03T20:12:51.219Z,5.00
2019-05-03T20:15:17.303Z,4.77
2019-05-03T20:17:54.619Z,4.63
2019-05-03T20:20:11.559Z,4.87
2019-05-03T20:22:37.621Z,4.23
2019-05-03T20:25:05.105Z,4.30
2019-05-03T20:27:31.872Z,4.93
2019-05-03T20:29:57.950Z,4.13
2019-05-03T20:32:25.156Z,4.53
2019-05-03T20:34:51.374Z,5.30
2019-05-03T20:37:17.447Z,5.30
2019-05-03T20:39:43.515Z,5.30
2019-05-03T20:42:09.665Z,5.23
2019-05-03T20:44:44.775Z,6.17
2019-05-03T20:47:18.672Z,6.53
2019-05-03T20:49:46.665Z,6.53
2019-05-03T20:52:12.827Z,5.63
2019-05-03T20:54:38.906Z,6.50
2019-05-03T20:57:05.387Z,6.40
2019-05-03T20:59:42.144Z,6.30
2019-05-03T21:01:59.579Z,10.50
2019-05-03T21:04:25.674Z,7.65
2019-05-03T21:06:51.857Z,7.00
2019-05-03T21:09:18.080Z,7.80
2019-05-03T21:11:44.854Z,6.67
2019-05-03T21:14:11.167Z,7.75
2019-05-03T21:16:51.227Z,7.03
2019-05-03T21:19:22.045Z,5.80
2019-05-03T21:21:50.052Z,5.95
2019-05-03T21:24:20.847Z,7.22
2019-05-03T21:26:46.927Z,7.58
2019-05-03T21:29:15.067Z,7.30
2019-05-03T21:31:41.055Z,6.47
2019-05-03T21:34:07.129Z,6.35
2019-05-03T21:36:34.821Z,6.80
2019-05-03T21:39:01.072Z,6.45
2019-05-03T21:41:27.184Z,6.25
2019-05-03T21:43:54.501Z,10.50
2019-05-03T21:46:25.693Z,9.10
2019-05-03T21:48:59.463Z,16.12
2019-05-03T21:51:25.544Z,13.60
2019-05-03T21:53:51.619Z,12.23
2019-05-03T21:56:17.803Z,8.03
2019-05-03T21:58:44.718Z,8.25
2019-05-03T22:01:13.085Z,7.05
2019-05-03T22:03:39.135Z,8.05
2019-05-03T22:06:05.314Z,8.10
2019-05-03T22:08:31.401Z,8.63
2019-05-03T22:10:57.470Z,6.42
2019-05-03T22:13:24.562Z,6.25
2019-05-03T22:15:56.010Z,7.10
2019-05-03T22:18:26.101Z,6.67
2019-05-03T22:20:54.930Z,6.70
2019-05-03T22:23:40.256Z,6.50
2019-05-03T22:26:06.926Z,6.00
2019-05-03T22:28:35.034Z,6.67
2019-05-03T22:31:00.977Z,6.20
2019-05-03T22:33:27.061Z,6.40
2019-05-03T22:36:07.967Z,7.00
2019-05-03T22:38:25.831Z,6.72
2019-05-03T22:40:51.944Z,6.80
2019-05-03T22:43:18.023Z,6.72
2019-05-03T22:45:45.626Z,7.80
2019-05-03T22:48:11.892Z,9.73
2019-05-03T22:50:37.956Z,7.80
2019-05-03T22:53:05.521Z,6.85
2019-05-03T22:55:32.419Z,7.10
2019-05-03T22:57:58.504Z,7.10
2019-05-03T23:00:25.242Z,7.42
2019-05-03T23:02:51.544Z,7.70
2019-05-03T23:05:17.629Z,7.87
2019-05-03T23:07:44.230Z,7.60
2019-05-03T23:10:11.927Z,6.12
2019-05-03T23:12:38.028Z,6.47
2019-05-03T23:15:07.145Z,6.47
2019-05-03T23:17:34.641Z,6.95
2019-05-03T23:20:04.526Z,6.37
2019-05-03T23:22:31.740Z,7.28
2019-05-03T23:24:57.809Z,6.70
2019-05-03T23:27:24.978Z,6.95
2019-05-03T23:29:51.307Z,6.42
2019-05-03T23:32:17.468Z,7.10
2019-05-03T23:34:43.672Z,6.20
2019-05-03T23:37:09.732Z,6.35
2019-05-03T23:39:35.844Z,7.75
2019-05-03T23:42:04.987Z,5.78
2019-05-03T23:44:31.287Z,6.20
2019-05-03T23:47:02.544Z,5.80
2019-05-03T23:49:28.623Z,5.53
2019-05-03T23:51:56.594Z,5.90
2019-05-03T23:54:24.554Z,5.30
2019-05-03T23:56:50.764Z,6.37
2019-05-03T23:59:16.905Z,6.80
